sensor_id;sensor_type;location;lat;lon;timestamp;P1;durP1;ratioP1;P2;durP2;ratioP2
39066;SDS011;24821;51.988;6.020;2023-07-09T00:00:16;11.43;;;10.63;;
39066;SDS011;24821;51.988;6.020;2023-07-09T00:02:44;12.10;;;11.07;;
39066;SDS011;24821;51.988;6.020;2023-07-09T00:05:13;12.30;;;11.50;;
39066;SDS011;24821;51.988;6.020;2023-07-09T00:07:41;11.10;;;10.20;;
39066;SDS011;24821;51.988;6.020;2023-07-09T00:10:13;11.05;;;10.27;;
39066;SDS011;24821;51.988;6.020;2023-07-09T00:12:43;10.20;;;9.18;;
39066;SDS011;24821;51.988;6.020;2023-07-09T00:15:10;11.90;;;10.77;;
39066;SDS011;24821;51.988;6.020;2023-07-09T00:17:37;10.80;;;9.75;;
39066;SDS011;24821;51.988;6.020;2023-07-09T00:20:05;10.00;;;9.30;;
39066;SDS011;24821;51.988;6.020;2023-07-09T00:22:38;11.20;;;10.07;;
39066;SDS011;24821;51.988;6.020;2023-07-09T00:25:04;11.27;;;10.25;;
39066;SDS011;24821;51.988;6.020;2023-07-09T00:27:30;11.70;;;10.85;;
39066;SDS011;24821;51.988;6.020;2023-07-09T00:29:56;11.55;;;10.55;;
39066;SDS011;24821;51.988;6.020;2023-07-09T00:32:21;10.43;;;9.63;;
39066;SDS011;24821;51.988;6.020;2023-07-09T00:34:47;10.85;;;10.05;;
39066;SDS011;24821;51.988;6.020;2023-07-09T00:37:16;11.70;;;10.82;;
39066;SDS011;24821;51.988;6.020;2023-07-09T00:39:47;12.70;;;11.55;;
39066;SDS011;24821;51.988;6.020;2023-07-09T00:42:14;11.40;;;10.65;;
39066;SDS011;24821;51.988;6.020;2023-07-09T00:44:43;11.30;;;10.32;;
39066;SDS011;24821;51.988;6.020;2023-07-09T00:49:48;12.23;;;11.13;;
39066;SDS011;24821;51.988;6.020;2023-07-09T00:54:53;11.00;;;10.30;;
39066;SDS011;24821;51.988;6.020;2023-07-09T00:57:21;11.55;;;10.60;;
39066;SDS011;24821;51.988;6.020;2023-07-09T00:59:51;10.07;;;9.38;;
39066;SDS011;24821;51.988;6.020;2023-07-09T01:02:23;12.45;;;11.35;;
39066;SDS011;24821;51.988;6.020;2023-07-09T01:04:58;16.83;;;12.05;;
39066;SDS011;24821;51.988;6.020;2023-07-09T01:07:26;12.27;;;10.82;;
39066;SDS011;24821;51.988;6.020;2023-07-09T01:09:53;13.82;;;11.48;;
39066;SDS011;24821;51.988;6.020;2023-07-09T01:12:21;12.68;;;11.77;;
39066;SDS011;24821;51.988;6.020;2023-07-09T01:14:49;12.15;;;11.25;;
39066;SDS011;24821;51.988;6.020;2023-07-09T01:17:18;11.05;;;10.30;;
39066;SDS011;24821;51.988;6.020;2023-07-09T01:19:48;11.35;;;10.43;;
39066;SDS011;24821;51.988;6.020;2023-07-09T01:22:15;11.43;;;10.63;;
39066;SDS011;24821;51.988;6.020;2023-07-09T01:24:47;13.60;;;12.35;;
39066;SDS011;24821;51.988;6.020;2023-07-09T01:27:13;28.73;;;11.50;;
39066;SDS011;24821;51.988;6.020;2023-07-09T01:29:38;11.35;;;10.45;;
39066;SDS011;24821;51.988;6.020;2023-07-09T01:32:05;12.68;;;11.60;;
39066;SDS011;24821;51.988;6.020;2023-07-09T01:34:32;11.35;;;10.35;;
39066;SDS011;24821;51.988;6.020;2023-07-09T01:36:58;12.90;;;12.00;;
39066;SDS011;24821;51.988;6.020;2023-07-09T01:39:24;13.23;;;12.10;;
39066;SDS011;24821;51.988;6.020;2023-07-09T01:41:53;12.85;;;11.77;;
39066;SDS011;24821;51.988;6.020;2023-07-09T01:44:19;13.85;;;12.77;;
39066;SDS011;24821;51.988;6.020;2023-07-09T01:46:45;13.35;;;12.27;;
39066;SDS011;24821;51.988;6.020;2023-07-09T01:49:10;13.75;;;12.57;;
39066;SDS011;24821;51.988;6.020;2023-07-09T01:51:36;13.50;;;12.50;;
39066;SDS011;24821;51.988;6.020;2023-07-09T01:54:03;14.18;;;13.05;;
39066;SDS011;24821;51.988;6.020;2023-07-09T01:56:29;13.50;;;12.23;;
39066;SDS011;24821;51.988;6.020;2023-07-09T01:58:55;14.38;;;13.25;;
39066;SDS011;24821;51.988;6.020;2023-07-09T02:01:26;12.88;;;11.75;;
39066;SDS011;24821;51.988;6.020;2023-07-09T02:03:53;13.55;;;12.55;;
39066;SDS011;24821;51.988;6.020;2023-07-09T02:06:18;14.13;;;13.18;;
39066;SDS011;24821;51.988;6.020;2023-07-09T02:08:44;13.25;;;12.20;;
39066;SDS011;24821;51.988;6.020;2023-07-09T02:11:10;13.48;;;12.40;;
39066;SDS011;24821;51.988;6.020;2023-07-09T02:13:36;14.85;;;13.63;;
39066;SDS011;24821;51.988;6.020;2023-07-09T02:16:01;14.27;;;12.93;;
39066;SDS011;24821;51.988;6.020;2023-07-09T02:18:28;13.38;;;11.80;;
39066;SDS011;24821;51.988;6.020;2023-07-09T02:20:54;13.75;;;12.57;;
39066;SDS011;24821;51.988;6.020;2023-07-09T02:23:19;13.25;;;12.07;;
39066;SDS011;24821;51.988;6.020;2023-07-09T02:25:45;13.82;;;12.80;;
39066;SDS011;24821;51.988;6.020;2023-07-09T02:28:10;14.50;;;13.10;;
39066;SDS011;24821;51.988;6.020;2023-07-09T02:30:36;13.45;;;12.48;;
39066;SDS011;24821;51.988;6.020;2023-07-09T02:33:02;13.90;;;12.73;;
39066;SDS011;24821;51.988;6.020;2023-07-09T02:35:27;13.30;;;12.35;;
39066;SDS011;24821;51.988;6.020;2023-07-09T02:37:53;13.52;;;12.55;;
39066;SDS011;24821;51.988;6.020;2023-07-09T02:40:18;12.48;;;11.57;;
39066;SDS011;24821;51.988;6.020;2023-07-09T02:42:44;13.75;;;12.75;;
39066;SDS011;24821;51.988;6.020;2023-07-09T02:45:10;14.27;;;12.85;;
39066;SDS011;24821;51.988;6.020;2023-07-09T02:47:36;14.57;;;13.25;;
39066;SDS011;24821;51.988;6.020;2023-07-09T02:50:01;13.60;;;12.57;;
39066;SDS011;24821;51.988;6.020;2023-07-09T02:52:28;13.70;;;12.68;;
39066;SDS011;24821;51.988;6.020;2023-07-09T02:54:53;12.77;;;11.80;;
39066;SDS011;24821;51.988;6.020;2023-07-09T02:57:19;14.25;;;12.88;;
39066;SDS011;24821;51.988;6.020;2023-07-09T02:59:44;14.05;;;13.15;;
39066;SDS011;24821;51.988;6.020;2023-07-09T03:02:10;14.60;;;13.43;;
39066;SDS011;24821;51.988;6.020;2023-07-09T03:04:35;13.95;;;13.07;;
39066;SDS011;24821;51.988;6.020;2023-07-09T03:07:01;13.60;;;12.63;;
39066;SDS011;24821;51.988;6.020;2023-07-09T03:09:27;14.18;;;13.18;;
39066;SDS011;24821;51.988;6.020;2023-07-09T03:11:54;14.43;;;13.30;;
39066;SDS011;24821;51.988;6.020;2023-07-09T03:14:19;14.18;;;13.27;;
39066;SDS011;24821;51.988;6.020;2023-07-09T03:16:45;16.27;;;14.75;;
39066;SDS011;24821;51.988;6.020;2023-07-09T03:19:11;16.17;;;14.77;;
39066;SDS011;24821;51.988;6.020;2023-07-09T03:21:36;16.05;;;14.75;;
39066;SDS011;24821;51.988;6.020;2023-07-09T03:24:02;14.07;;;12.93;;
39066;SDS011;24821;51.988;6.020;2023-07-09T03:26:28;14.88;;;13.60;;
39066;SDS011;24821;51.988;6.020;2023-07-09T03:28:54;16.40;;;14.82;;
39066;SDS011;24821;51.988;6.020;2023-07-09T03:31:20;15.30;;;14.02;;
39066;SDS011;24821;51.988;6.020;2023-07-09T03:33:47;13.50;;;12.50;;
39066;SDS011;24821;51.988;6.020;2023-07-09T03:36:13;14.80;;;13.68;;
39066;SDS011;24821;51.988;6.020;2023-07-09T03:38:39;15.65;;;14.15;;
39066;SDS011;24821;51.988;6.020;2023-07-09T03:41:04;15.27;;;14.10;;
39066;SDS011;24821;51.988;6.020;2023-07-09T03:43:31;14.15;;;13.30;;
39066;SDS011;24821;51.988;6.020;2023-07-09T03:45:56;16.10;;;14.90;;
39066;SDS011;24821;51.988;6.020;2023-07-09T03:48:22;16.25;;;14.40;;
39066;SDS011;24821;51.988;6.020;2023-07-09T03:50:48;15.60;;;14.50;;
39066;SDS011;24821;51.988;6.020;2023-07-09T03:53:14;16.65;;;15.32;;
39066;SDS011;24821;51.988;6.020;2023-07-09T03:55:41;15.63;;;14.50;;
39066;SDS011;24821;51.988;6.020;2023-07-09T03:58:07;14.77;;;13.68;;
39066;SDS011;24821;51.988;6.020;2023-07-09T04:00:34;14.63;;;13.60;;
39066;SDS011;24821;51.988;6.020;2023-07-09T04:02:59;17.05;;;15.82;;
39066;SDS011;24821;51.988;6.020;2023-07-09T04:05:26;15.68;;;14.50;;
39066;SDS011;24821;51.988;6.020;2023-07-09T04:07:52;17.08;;;15.68;;
39066;SDS011;24821;51.988;6.020;2023-07-09T04:10:18;16.63;;;15.43;;
39066;SDS011;24821;51.988;6.020;2023-07-09T04:12:44;15.20;;;14.15;;
39066;SDS011;24821;51.988;6.020;2023-07-09T04:15:10;16.95;;;15.40;;
39066;SDS011;24821;51.988;6.020;2023-07-09T04:17:38;16.83;;;15.73;;
39066;SDS011;24821;51.988;6.020;2023-07-09T04:20:04;14.73;;;13.75;;
39066;SDS011;24821;51.988;6.020;2023-07-09T04:22:31;15.82;;;14.55;;
39066;SDS011;24821;51.988;6.020;2023-07-09T04:24:57;15.50;;;14.35;;
39066;SDS011;24821;51.988;6.020;2023-07-09T04:27:23;15.00;;;13.77;;
39066;SDS011;24821;51.988;6.020;2023-07-09T04:29:52;15.32;;;14.13;;
39066;SDS011;24821;51.988;6.020;2023-07-09T04:32:18;16.48;;;15.07;;
39066;SDS011;24821;51.988;6.020;2023-07-09T04:34:44;15.95;;;14.73;;
39066;SDS011;24821;51.988;6.020;2023-07-09T04:37:10;15.82;;;14.60;;
39066;SDS011;24821;51.988;6.020;2023-07-09T04:39:37;15.95;;;14.85;;
39066;SDS011;24821;51.988;6.020;2023-07-09T04:42:03;16.15;;;14.55;;
39066;SDS011;24821;51.988;6.020;2023-07-09T04:44:30;17.23;;;15.85;;
39066;SDS011;24821;51.988;6.020;2023-07-09T04:46:56;15.20;;;14.10;;
39066;SDS011;24821;51.988;6.020;2023-07-09T04:49:21;16.10;;;14.70;;
39066;SDS011;24821;51.988;6.020;2023-07-09T04:51:48;15.45;;;14.00;;
39066;SDS011;24821;51.988;6.020;2023-07-09T04:54:13;16.20;;;15.32;;
39066;SDS011;24821;51.988;6.020;2023-07-09T04:56:40;15.38;;;14.27;;
39066;SDS011;24821;51.988;6.020;2023-07-09T04:59:09;16.58;;;15.40;;
39066;SDS011;24821;51.988;6.020;2023-07-09T05:01:35;16.05;;;14.95;;
39066;SDS011;24821;51.988;6.020;2023-07-09T05:04:00;15.82;;;14.63;;
39066;SDS011;24821;51.988;6.020;2023-07-09T05:06:26;16.08;;;14.88;;
39066;SDS011;24821;51.988;6.020;2023-07-09T05:08:52;16.95;;;15.65;;
39066;SDS011;24821;51.988;6.020;2023-07-09T05:11:17;16.13;;;14.85;;
39066;SDS011;24821;51.988;6.020;2023-07-09T05:13:43;15.38;;;14.18;;
39066;SDS011;24821;51.988;6.020;2023-07-09T05:16:08;14.55;;;13.60;;
39066;SDS011;24821;51.988;6.020;2023-07-09T05:18:34;15.05;;;13.70;;
39066;SDS011;24821;51.988;6.020;2023-07-09T05:20:59;15.75;;;14.45;;
39066;SDS011;24821;51.988;6.020;2023-07-09T05:23:25;15.82;;;14.65;;
39066;SDS011;24821;51.988;6.020;2023-07-09T05:26:00;16.75;;;15.32;;
39066;SDS011;24821;51.988;6.020;2023-07-09T05:28:28;14.85;;;13.73;;
39066;SDS011;24821;51.988;6.020;2023-07-09T05:30:54;14.45;;;13.50;;
39066;SDS011;24821;51.988;6.020;2023-07-09T05:33:20;14.48;;;13.48;;
39066;SDS011;24821;51.988;6.020;2023-07-09T05:35:46;13.95;;;13.10;;
39066;SDS011;24821;51.988;6.020;2023-07-09T05:38:13;14.45;;;13.35;;
39066;SDS011;24821;51.988;6.020;2023-07-09T05:40:39;15.40;;;14.35;;
39066;SDS011;24821;51.988;6.020;2023-07-09T05:43:05;15.90;;;14.52;;
39066;SDS011;24821;51.988;6.020;2023-07-09T05:45:31;16.60;;;15.02;;
39066;SDS011;24821;51.988;6.020;2023-07-09T05:47:59;16.38;;;14.90;;
39066;SDS011;24821;51.988;6.020;2023-07-09T05:50:26;16.48;;;14.90;;
39066;SDS011;24821;51.988;6.020;2023-07-09T05:52:52;15.10;;;13.82;;
39066;SDS011;24821;51.988;6.020;2023-07-09T05:55:18;16.23;;;14.30;;
39066;SDS011;24821;51.988;6.020;2023-07-09T05:57:44;13.32;;;12.32;;
39066;SDS011;24821;51.988;6.020;2023-07-09T06:00:10;15.05;;;13.50;;
39066;SDS011;24821;51.988;6.020;2023-07-09T06:02:37;14.55;;;13.48;;
39066;SDS011;24821;51.988;6.020;2023-07-09T06:05:03;21.20;;;15.23;;
39066;SDS011;24821;51.988;6.020;2023-07-09T06:07:29;16.35;;;14.82;;
39066;SDS011;24821;51.988;6.020;2023-07-09T06:09:55;16.15;;;14.45;;
39066;SDS011;24821;51.988;6.020;2023-07-09T06:12:22;17.20;;;15.75;;
39066;SDS011;24821;51.988;6.020;2023-07-09T06:14:48;16.42;;;14.90;;
39066;SDS011;24821;51.988;6.020;2023-07-09T06:17:14;15.13;;;13.07;;
39066;SDS011;24821;51.988;6.020;2023-07-09T06:19:39;14.82;;;13.48;;
39066;SDS011;24821;51.988;6.020;2023-07-09T06:22:05;18.17;;;15.13;;
39066;SDS011;24821;51.988;6.020;2023-07-09T06:24:31;17.00;;;14.68;;
39066;SDS011;24821;51.988;6.020;2023-07-09T06:26:56;16.60;;;15.50;;
39066;SDS011;24821;51.988;6.020;2023-07-09T06:29:22;17.63;;;16.42;;
39066;SDS011;24821;51.988;6.020;2023-07-09T06:31:48;16.83;;;15.57;;
39066;SDS011;24821;51.988;6.020;2023-07-09T06:34:13;18.20;;;16.90;;
39066;SDS011;24821;51.988;6.020;2023-07-09T06:36:39;18.88;;;17.10;;
39066;SDS011;24821;51.988;6.020;2023-07-09T06:39:05;19.60;;;18.15;;
39066;SDS011;24821;51.988;6.020;2023-07-09T06:41:30;17.88;;;16.20;;
39066;SDS011;24821;51.988;6.020;2023-07-09T06:43:57;17.83;;;16.63;;
39066;SDS011;24821;51.988;6.020;2023-07-09T06:46:23;17.50;;;16.10;;
39066;SDS011;24821;51.988;6.020;2023-07-09T06:48:50;17.25;;;16.05;;
39066;SDS011;24821;51.988;6.020;2023-07-09T06:51:15;17.05;;;15.98;;
39066;SDS011;24821;51.988;6.020;2023-07-09T06:53:41;18.92;;;17.00;;
39066;SDS011;24821;51.988;6.020;2023-07-09T06:56:09;17.67;;;16.55;;
39066;SDS011;24821;51.988;6.020;2023-07-09T06:58:35;18.65;;;17.20;;
39066;SDS011;24821;51.988;6.020;2023-07-09T07:01:02;17.77;;;16.27;;
39066;SDS011;24821;51.988;6.020;2023-07-09T07:03:29;17.17;;;15.82;;
39066;SDS011;24821;51.988;6.020;2023-07-09T07:05:55;17.08;;;15.98;;
39066;SDS011;24821;51.988;6.020;2023-07-09T07:08:22;17.83;;;16.35;;
39066;SDS011;24821;51.988;6.020;2023-07-09T07:10:50;16.85;;;15.68;;
39066;SDS011;24821;51.988;6.020;2023-07-09T07:13:26;16.80;;;15.55;;
39066;SDS011;24821;51.988;6.020;2023-07-09T07:15:52;16.90;;;15.50;;
39066;SDS011;24821;51.988;6.020;2023-07-09T07:18:18;18.38;;;16.88;;
39066;SDS011;24821;51.988;6.020;2023-07-09T07:20:44;17.42;;;16.33;;
39066;SDS011;24821;51.988;6.020;2023-07-09T07:23:10;16.63;;;15.52;;
39066;SDS011;24821;51.988;6.020;2023-07-09T07:25:35;17.70;;;16.40;;
39066;SDS011;24821;51.988;6.020;2023-07-09T07:28:01;15.73;;;14.63;;
39066;SDS011;24821;51.988;6.020;2023-07-09T07:30:26;15.82;;;14.57;;
39066;SDS011;24821;51.988;6.020;2023-07-09T07:32:52;15.73;;;14.60;;
39066;SDS011;24821;51.988;6.020;2023-07-09T07:35:18;15.32;;;14.32;;
39066;SDS011;24821;51.988;6.020;2023-07-09T07:37:44;17.45;;;15.88;;
39066;SDS011;24821;51.988;6.020;2023-07-09T07:40:10;15.20;;;14.02;;
39066;SDS011;24821;51.988;6.020;2023-07-09T07:42:36;15.43;;;14.02;;
39066;SDS011;24821;51.988;6.020;2023-07-09T07:45:02;14.52;;;13.52;;
39066;SDS011;24821;51.988;6.020;2023-07-09T07:47:28;14.27;;;13.30;;
39066;SDS011;24821;51.988;6.020;2023-07-09T07:49:55;13.88;;;12.77;;
39066;SDS011;24821;51.988;6.020;2023-07-09T07:52:21;14.45;;;13.18;;
39066;SDS011;24821;51.988;6.020;2023-07-09T07:54:47;15.40;;;14.20;;
39066;SDS011;24821;51.988;6.020;2023-07-09T07:57:13;14.35;;;13.23;;
39066;SDS011;24821;51.988;6.020;2023-07-09T07:59:39;16.15;;;15.05;;
39066;SDS011;24821;51.988;6.020;2023-07-09T08:02:05;17.23;;;16.00;;
39066;SDS011;24821;51.988;6.020;2023-07-09T08:04:35;25.35;;;23.23;;
39066;SDS011;24821;51.988;6.020;2023-07-09T08:07:01;27.05;;;24.80;;
39066;SDS011;24821;51.988;6.020;2023-07-09T08:09:27;26.25;;;24.15;;
39066;SDS011;24821;51.988;6.020;2023-07-09T08:11:52;21.05;;;19.85;;
39066;SDS011;24821;51.988;6.020;2023-07-09T08:14:18;19.75;;;18.30;;
39066;SDS011;24821;51.988;6.020;2023-07-09T08:16:44;19.95;;;18.77;;
39066;SDS011;24821;51.988;6.020;2023-07-09T08:19:09;18.38;;;17.15;;
39066;SDS011;24821;51.988;6.020;2023-07-09T08:21:35;18.88;;;17.67;;
39066;SDS011;24821;51.988;6.020;2023-07-09T08:24:01;17.55;;;16.13;;
39066;SDS011;24821;51.988;6.020;2023-07-09T08:26:26;19.33;;;18.20;;
39066;SDS011;24821;51.988;6.020;2023-07-09T08:28:53;19.05;;;17.70;;
39066;SDS011;24821;51.988;6.020;2023-07-09T08:31:18;19.50;;;18.13;;
39066;SDS011;24821;51.988;6.020;2023-07-09T08:33:44;17.63;;;16.48;;
39066;SDS011;24821;51.988;6.020;2023-07-09T08:36:10;18.23;;;16.45;;
39066;SDS011;24821;51.988;6.020;2023-07-09T08:38:35;18.38;;;16.98;;
39066;SDS011;24821;51.988;6.020;2023-07-09T08:49:02;19.98;;;18.77;;
39066;SDS011;24821;51.988;6.020;2023-07-09T08:54:02;27.83;;;26.45;;
39066;SDS011;24821;51.988;6.020;2023-07-09T08:56:28;28.13;;;26.80;;
39066;SDS011;24821;51.988;6.020;2023-07-09T08:58:59;27.13;;;25.80;;
39066;SDS011;24821;51.988;6.020;2023-07-09T09:01:40;30.60;;;28.95;;
39066;SDS011;24821;51.988;6.020;2023-07-09T09:04:36;34.35;;;32.28;;
39066;SDS011;24821;51.988;6.020;2023-07-09T09:07:16;38.65;;;36.78;;
39066;SDS011;24821;51.988;6.020;2023-07-09T09:09:56;52.42;;;49.78;;
39066;SDS011;24821;51.988;6.020;2023-07-09T09:17:45;50.85;;;48.45;;
39066;SDS011;24821;51.988;6.020;2023-07-09T09:20:16;55.78;;;53.08;;
39066;SDS011;24821;51.988;6.020;2023-07-09T09:23:30;51.70;;;49.22;;
39066;SDS011;24821;51.988;6.020;2023-07-09T09:25:45;54.80;;;52.15;;
39066;SDS011;24821;51.988;6.020;2023-07-09T09:28:16;61.58;;;58.65;;
39066;SDS011;24821;51.988;6.020;2023-07-09T09:30:42;60.05;;;57.30;;
39066;SDS011;24821;51.988;6.020;2023-07-09T09:33:09;57.90;;;55.00;;
39066;SDS011;24821;51.988;6.020;2023-07-09T09:35:40;68.18;;;64.90;;
39066;SDS011;24821;51.988;6.020;2023-07-09T09:38:17;70.30;;;66.93;;
39066;SDS011;24821;51.988;6.020;2023-07-09T09:40:44;70.80;;;67.47;;
39066;SDS011;24821;51.988;6.020;2023-07-09T09:43:15;67.32;;;64.22;;
39066;SDS011;24821;51.988;6.020;2023-07-09T09:45:44;66.00;;;62.90;;
39066;SDS011;24821;51.988;6.020;2023-07-09T09:50:55;64.30;;;61.45;;
39066;SDS011;24821;51.988;6.020;2023-07-09T09:53:28;62.88;;;59.40;;
39066;SDS011;24821;51.988;6.020;2023-07-09T09:55:55;54.97;;;52.40;;
39066;SDS011;24821;51.988;6.020;2023-07-09T09:58:25;57.72;;;55.03;;
39066;SDS011;24821;51.988;6.020;2023-07-09T10:00:54;57.50;;;54.90;;
39066;SDS011;24821;51.988;6.020;2023-07-09T10:03:21;52.03;;;49.70;;
39066;SDS011;24821;51.988;6.020;2023-07-09T10:05:57;54.65;;;52.15;;
39066;SDS011;24821;51.988;6.020;2023-07-09T10:13:43;45.35;;;43.15;;
39066;SDS011;24821;51.988;6.020;2023-07-09T10:16:30;39.33;;;37.45;;
39066;SDS011;24821;51.988;6.020;2023-07-09T10:21:57;44.08;;;41.95;;
39066;SDS011;24821;51.988;6.020;2023-07-09T10:27:22;41.88;;;39.88;;
39066;SDS011;24821;51.988;6.020;2023-07-09T10:30:08;44.78;;;42.65;;
39066;SDS011;24821;51.988;6.020;2023-07-09T10:32:58;42.03;;;40.13;;
39066;SDS011;24821;51.988;6.020;2023-07-09T10:35:28;42.17;;;40.17;;
39066;SDS011;24821;51.988;6.020;2023-07-09T10:40:41;42.67;;;40.50;;
39066;SDS011;24821;51.988;6.020;2023-07-09T10:43:13;39.85;;;38.05;;
39066;SDS011;24821;51.988;6.020;2023-07-09T10:45:48;38.78;;;36.92;;
39066;SDS011;24821;51.988;6.020;2023-07-09T10:48:38;40.85;;;39.00;;
39066;SDS011;24821;51.988;6.020;2023-07-09T10:51:13;39.35;;;37.65;;
39066;SDS011;24821;51.988;6.020;2023-07-09T10:53:45;39.22;;;37.42;;
39066;SDS011;24821;51.988;6.020;2023-07-09T10:56:17;33.92;;;32.22;;
39066;SDS011;24821;51.988;6.020;2023-07-09T10:58:49;34.58;;;32.97;;
39066;SDS011;24821;51.988;6.020;2023-07-09T11:01:40;35.95;;;34.30;;
39066;SDS011;24821;51.988;6.020;2023-07-09T11:04:12;38.00;;;36.20;;
39066;SDS011;24821;51.988;6.020;2023-07-09T11:06:46;32.42;;;30.17;;
39066;SDS011;24821;51.988;6.020;2023-07-09T11:09:19;29.08;;;27.60;;
39066;SDS011;24821;51.988;6.020;2023-07-09T11:12:07;27.55;;;25.92;;
39066;SDS011;24821;51.988;6.020;2023-07-09T11:17:26;27.48;;;26.27;;
39066;SDS011;24821;51.988;6.020;2023-07-09T11:19:55;32.97;;;31.38;;
39066;SDS011;24821;51.988;6.020;2023-07-09T11:22:27;34.38;;;32.88;;
39066;SDS011;24821;51.988;6.020;2023-07-09T11:25:07;37.58;;;35.90;;
39066;SDS011;24821;51.988;6.020;2023-07-09T11:27:44;37.20;;;35.13;;
39066;SDS011;24821;51.988;6.020;2023-07-09T11:30:28;30.73;;;29.42;;
39066;SDS011;24821;51.988;6.020;2023-07-09T11:32:58;38.03;;;36.22;;
39066;SDS011;24821;51.988;6.020;2023-07-09T11:35:27;40.80;;;38.95;;
39066;SDS011;24821;51.988;6.020;2023-07-09T11:37:55;38.67;;;36.95;;
39066;SDS011;24821;51.988;6.020;2023-07-09T11:40:23;40.05;;;38.25;;
39066;SDS011;24821;51.988;6.020;2023-07-09T11:42:56;35.75;;;33.95;;
39066;SDS011;24821;51.988;6.020;2023-07-09T11:45:24;38.20;;;36.50;;
39066;SDS011;24821;51.988;6.020;2023-07-09T11:50:40;39.63;;;37.85;;
39066;SDS011;24821;51.988;6.020;2023-07-09T11:53:18;37.67;;;36.00;;
39066;SDS011;24821;51.988;6.020;2023-07-09T11:55:47;39.75;;;37.97;;
39066;SDS011;24821;51.988;6.020;2023-07-09T11:58:14;41.20;;;39.30;;
39066;SDS011;24821;51.988;6.020;2023-07-09T12:00:46;40.35;;;38.60;;
39066;SDS011;24821;51.988;6.020;2023-07-09T12:03:15;38.80;;;37.13;;
39066;SDS011;24821;51.988;6.020;2023-07-09T12:05:48;38.00;;;36.33;;
39066;SDS011;24821;51.988;6.020;2023-07-09T12:08:36;36.22;;;34.67;;
39066;SDS011;24821;51.988;6.020;2023-07-09T12:11:04;42.15;;;40.17;;
39066;SDS011;24821;51.988;6.020;2023-07-09T12:13:37;37.78;;;36.08;;
39066;SDS011;24821;51.988;6.020;2023-07-09T12:16:04;38.72;;;36.45;;
39066;SDS011;24821;51.988;6.020;2023-07-09T12:18:43;46.83;;;43.72;;
39066;SDS011;24821;51.988;6.020;2023-07-09T12:21:09;39.58;;;37.67;;
39066;SDS011;24821;51.988;6.020;2023-07-09T12:23:35;38.85;;;37.05;;
39066;SDS011;24821;51.988;6.020;2023-07-09T12:26:01;38.22;;;36.55;;
39066;SDS011;24821;51.988;6.020;2023-07-09T12:28:28;38.30;;;36.40;;
39066;SDS011;24821;51.988;6.020;2023-07-09T12:30:55;37.72;;;35.95;;
39066;SDS011;24821;51.988;6.020;2023-07-09T12:33:22;39.78;;;37.80;;
39066;SDS011;24821;51.988;6.020;2023-07-09T12:36:04;45.85;;;43.70;;
39066;SDS011;24821;51.988;6.020;2023-07-09T12:39:00;49.25;;;47.00;;
39066;SDS011;24821;51.988;6.020;2023-07-09T12:41:29;38.70;;;36.83;;
39066;SDS011;24821;51.988;6.020;2023-07-09T12:44:03;45.63;;;43.47;;
39066;SDS011;24821;51.988;6.020;2023-07-09T12:46:29;45.88;;;43.72;;
39066;SDS011;24821;51.988;6.020;2023-07-09T12:48:55;37.72;;;36.13;;
39066;SDS011;24821;51.988;6.020;2023-07-09T12:51:22;38.15;;;36.45;;
39066;SDS011;24821;51.988;6.020;2023-07-09T12:56:53;37.85;;;36.10;;
39066;SDS011;24821;51.988;6.020;2023-07-09T12:59:21;42.15;;;40.15;;
39066;SDS011;24821;51.988;6.020;2023-07-09T13:01:55;38.65;;;36.90;;
39066;SDS011;24821;51.988;6.020;2023-07-09T13:04:39;46.30;;;44.03;;
39066;SDS011;24821;51.988;6.020;2023-07-09T13:07:23;48.30;;;46.15;;
39066;SDS011;24821;51.988;6.020;2023-07-09T13:09:51;54.25;;;51.67;;
39066;SDS011;24821;51.988;6.020;2023-07-09T13:12:29;50.33;;;48.13;;
39066;SDS011;24821;51.988;6.020;2023-07-09T13:14:56;59.10;;;56.40;;
39066;SDS011;24821;51.988;6.020;2023-07-09T13:17:27;53.47;;;50.95;;
39066;SDS011;24821;51.988;6.020;2023-07-09T13:20:22;49.53;;;47.30;;
39066;SDS011;24821;51.988;6.020;2023-07-09T13:22:48;54.72;;;51.63;;
39066;SDS011;24821;51.988;6.020;2023-07-09T13:25:13;44.55;;;42.58;;
39066;SDS011;24821;51.988;6.020;2023-07-09T13:27:39;38.53;;;36.53;;
39066;SDS011;24821;51.988;6.020;2023-07-09T13:30:05;44.67;;;42.42;;
39066;SDS011;24821;51.988;6.020;2023-07-09T13:32:31;39.95;;;37.95;;
39066;SDS011;24821;51.988;6.020;2023-07-09T13:34:56;36.35;;;34.65;;
39066;SDS011;24821;51.988;6.020;2023-07-09T13:37:22;41.80;;;40.03;;
39066;SDS011;24821;51.988;6.020;2023-07-09T13:39:51;52.40;;;49.97;;
39066;SDS011;24821;51.988;6.020;2023-07-09T13:42:17;36.85;;;35.17;;
39066;SDS011;24821;51.988;6.020;2023-07-09T13:44:43;33.95;;;32.35;;
39066;SDS011;24821;51.988;6.020;2023-07-09T13:47:14;43.75;;;41.75;;
39066;SDS011;24821;51.988;6.020;2023-07-09T13:49:41;40.22;;;38.38;;
39066;SDS011;24821;51.988;6.020;2023-07-09T13:52:10;51.28;;;48.78;;
39066;SDS011;24821;51.988;6.020;2023-07-09T13:54:41;61.28;;;58.42;;
39066;SDS011;24821;51.988;6.020;2023-07-09T13:57:09;62.13;;;59.25;;
39066;SDS011;24821;51.988;6.020;2023-07-09T13:59:38;67.63;;;64.53;;
39066;SDS011;24821;51.988;6.020;2023-07-09T14:02:07;67.95;;;64.75;;
39066;SDS011;24821;51.988;6.020;2023-07-09T14:04:50;66.85;;;63.67;;
39066;SDS011;24821;51.988;6.020;2023-07-09T14:07:20;67.13;;;64.05;;
39066;SDS011;24821;51.988;6.020;2023-07-09T14:09:53;58.60;;;55.58;;
39066;SDS011;24821;51.988;6.020;2023-07-09T14:12:20;63.28;;;60.38;;
39066;SDS011;24821;51.988;6.020;2023-07-09T14:14:46;62.03;;;59.15;;
39066;SDS011;24821;51.988;6.020;2023-07-09T14:17:13;62.85;;;60.03;;
39066;SDS011;24821;51.988;6.020;2023-07-09T14:19:39;57.28;;;54.30;;
39066;SDS011;24821;51.988;6.020;2023-07-09T14:22:27;49.05;;;46.65;;
39066;SDS011;24821;51.988;6.020;2023-07-09T14:24:57;41.83;;;39.83;;
39066;SDS011;24821;51.988;6.020;2023-07-09T14:27:23;36.95;;;35.28;;
39066;SDS011;24821;51.988;6.020;2023-07-09T14:29:49;33.22;;;31.63;;
39066;SDS011;24821;51.988;6.020;2023-07-09T14:35:14;35.95;;;34.05;;
39066;SDS011;24821;51.988;6.020;2023-07-09T14:37:42;34.72;;;33.03;;
39066;SDS011;24821;51.988;6.020;2023-07-09T14:40:08;27.13;;;25.75;;
39066;SDS011;24821;51.988;6.020;2023-07-09T14:42:36;25.52;;;24.23;;
39066;SDS011;24821;51.988;6.020;2023-07-09T14:45:03;24.17;;;22.98;;
39066;SDS011;24821;51.988;6.020;2023-07-09T14:47:50;23.48;;;22.13;;
39066;SDS011;24821;51.988;6.020;2023-07-09T14:50:17;22.25;;;20.98;;
39066;SDS011;24821;51.988;6.020;2023-07-09T14:52:44;22.67;;;21.45;;
39066;SDS011;24821;51.988;6.020;2023-07-09T14:55:15;23.00;;;21.38;;
39066;SDS011;24821;51.988;6.020;2023-07-09T14:57:43;21.85;;;20.73;;
39066;SDS011;24821;51.988;6.020;2023-07-09T15:00:12;25.58;;;21.02;;
39066;SDS011;24821;51.988;6.020;2023-07-09T15:02:43;22.65;;;21.33;;
39066;SDS011;24821;51.988;6.020;2023-07-09T15:05:17;22.55;;;21.42;;
39066;SDS011;24821;51.988;6.020;2023-07-09T15:07:44;22.80;;;21.60;;
39066;SDS011;24821;51.988;6.020;2023-07-09T15:10:14;23.95;;;22.52;;
39066;SDS011;24821;51.988;6.020;2023-07-09T15:12:41;24.15;;;22.77;;
39066;SDS011;24821;51.988;6.020;2023-07-09T15:15:12;25.63;;;24.48;;
39066;SDS011;24821;51.988;6.020;2023-07-09T15:17:43;27.05;;;25.70;;